Rosamond, CA

1:12 PM PST on January 26, 2015 (GMT -0800)
Skynet | Change Station
CLOSE
Current Station
Personal Weather Station
Location: KC6URU Rosamond, CA
Elevation: 2402 ft
Nearby Weather Stations

Elev 2402 ft 34.82 °N, 118.27 °W | Updated 4 seconds ago

Mostly Cloudy
Mostly Cloudy
63.7 °F
Feels Like 63.7 °F
N
6.9
Wind Variable Wind from East
Gusts 6.9 mph

Today
High -- | Low -- °F
--% Chance of Precip.
Yesterday
High -- | Low -- °F
Precip. -- in
6:55 AM 5:15 PM
Waxing Crescent, 46% visible
Pressure 30.09 in
Visibility 10.0 miles
Clouds Clear
Dew Point 40 °F
Humidity 41%
Rainfall 0.00 in
Snow Depth Not available.
UV 4 out of 12
Pollen 5.40 out of 12
Air Quality Not available.
Flu Activity Not available.
METAR KWJF 262056Z 02004KT 10SM CLR 16/01 A3008 RMK AO2 SLP187 T01610011 58019

More Conditions Fewer Conditions

Pressure 30.09 in
Visibility 10.0 miles
Clouds Clear
Dew Point 40 °F
Humidity 41%
Rainfall 0.00 in
Snow Depth Not available.
UV 4 out of 12
Pollen 5.40 out of 12
Air Quality Not available.
Flu Activity Not available.
METAR KWJF 262056Z 02004KT 10SM CLR 16/01 A3008 RMK AO2 SLP187 T01610011 58019

More Conditions Fewer Conditions

10-Day Weather Forecast

Almanac

Astronomy

Jan. 26, 2015 Rise Set
Actual Time
Civil Twilight
Nautical Twilight
Astronomical Twilight
Moon
Length of Visible Light
Length of Day
Tomorrow will be .
, % of the Moon is Illuminated

Today's Extremes

State Highs State Lows

Community

WunderPhotos

Upload Photos

1,790,364 photos uploaded!

WunderBlogs® & News

Nearby

Air Quality

  Air Quality AQ Index Pollutant
Not available.

Snow Depth

Station Depth Elevation

Earthquake Activity

City Distance Mag. Time & Date
Minimum magnitude displayed is 2.5.

Coastal Water Temperatures

Place Temperature

Nearby Weather Stations